Timeline UpdatesTrip UpdatesNews PostsPvt Posts♥♥Travel TipsAdmin PostsConv PostsFollowed PostsChat RequestsBlog PostsPNR Posts

Disclaimer
Search
 
 
Sun Nov 23, 2014 16:32:21 ISTHomeTrainsΣChainsAtlasPNRForumGalleryNewsFAQTripsMembersLoginFeedback
No Recent News for this Train
Other Trains in the News **new
Latest...
.
Mon Oct 06, 2014 (04:03PM)
⇐ Return Journey: Train# 11058

11057/Mumbai LTT - Amritsar (Pathankot) Express

Time-Table HAS CHANGED.
Nov 04 (9:44AM)
Change Departure Station:
Change Arrival Station:
Post a Train Travel TipPost a Train Travel Tip **new
Post a Comment/Question/Picture/VideoPost a Comment/Question/Picture/Video
Pantry/Catering
✕ NO Pantry Car
✓ Catering Avbl
RSA - Rake Sharing
No RSA
Rake/Coach Composition
LOCO-SLR-GEN-GEN-MILITARY-A1-B1-B2-B3-S8-S7-S6-S5-S4-S3-S2-S1-RMS-LDS-[B4-S9-S10-SLR]. ; [B4-S9-S10-SLR] -> Is the Slip portion for Dhule and bifurcates from the main train at Chalisgaon.
Loco
LTT-UMB --> GZB WAP-1/4/5/7 UMB-ASR --> TKD WDM3A/WDP3A
News    PNR    Forum    Time-Table    Availability    Fare Chart    Map    Arr/Dep History    Trips    Gallery    ΣChains    X/O    Timeline    
Travel Time: 13h 7m    31 halts    Distance: 531 km    Avg Speed: 40 km/hr
Type: Mail/Express
Zone: CR/Central
Departs @ 03:23 (Avg 58m late)
Platform# 2
SMTWTFS
Faridabad/FDB 
Arrives @ 16:30 (Avg 35m late)
Platform# 4
SMTWTFS
Amritsar Junction/ASR 

31 halts. 91 intermediate Stations between Faridabad and Amritsar Junction

Show ALL intermediate Stations  Show Old Time-Table

#TrkCodeStation NameX/OArrivesAvgDepartsAvgHaltPFDay#KmSpeedElevZoneAddress
1/==/LTTMumbai Lokmanya Tilak Terminus (5)  -23:45+231-1499.0437mCRMumbai - 400089, Maharashtra
2/==/TNAThane (10)  00:07 00:08+300:10+33 2m72-1482.56110mCRThane (West) 400602, Maharashtra
3/==/KYNKalyan Junction (8)  00:30+1300:35 00:33+185 3m42-1462.36210mCRKalyan 421301, Maharashtra
4/==/KSRAKasara (4)XO  01:43 01:38+1801:45 01:40+242m12-1394.925290mCRDist. Thane 421602, Maharashtra
5/==/IGPIgatpuri (4)X02:15+1202:20+185m22-1380.563589mCRIgatpuri 422403, Maharashtra
6/==/DVLDevlali (3)X  03:08 03:03+1703:10 03:05+182m12-1335.669561mCRDist. Nashik 422401, Maharashtra
7/==/NKNasik Road (3)XO  03:15 03:10+2103:20 03:15+195m12-1329.993563mCRNashik 422101, Maharashtra
8/==/MMRManmad Junction (6)X  04:05 04:02+2204:10 04:05+235 3m22-1257.176580mCRManmad 423104, Maharashtra
9/==/CSNChalisgaon Junction (3)  05:03 04:58+2105:05 05:00+242m--2-1189.696352mCRChalisgaon 424101, Maharashtra
10/==/PCPachora Junction (4)  05:33 05:28+2805:35 05:30+282m--2-1144.787264mCRPachora 424201, Maharashtra
11/==/JLJalgaon Junction (4)X  06:08 06:03+3106:10 06:05+322m32-1097.058213mCRJalgaon 425001, Maharashtra
12/==/BSLBhusaval Junction (8)X  06:40 06:30+3506:50 06:45+3210 15m62-1072.951208mCRBhusaval 425201, Maharashtra
13/==/SAVSavda (2)XO  07:03+3307:05+332m--2-1057.5105220mCRSavda, Maharashtra
14/==/NBNimbhora (2)XO  07:13 07:10+3707:15 07:12+362m--2-1048.876229mCRJalgaon, Maharashtra
15/==/RVRaver (2)X  07:23 07:20+3707:25 07:22+372m--2-1038.676242mCRJalgaon, Maharashtra
16/==/BAUBurhanpur (2)  07:43 07:38+3807:45 07:40+382m22-1018.487269mCRBurhanpur, Madhya Pradesh
17/==/NPNRNepanagar (2)  08:03 07:58+4108:05 08:00+412m--2-992.230289mCRState Highway 27, Madhya Pradesh
18/==/KNWKhandwa Junction (5)X  09:35 09:25+209:40 09:30+55m22-949.541310mCRKhandwa, Madhya Pradesh
19/==/TLVTalvadiya (2)XO  09:53+009:55+62m--2-933.899308mWCRKhandwa, Madhya Pradesh
20/==/CAERChhanera (2)XO  10:13+1210:15+172m--2-904.188283mWCRChhanera, Madhya Pradesh
21/==/KKNKhirkiya (2)X  10:36+2010:38+222m22-873.473281mWCRSH 15, Madhya Pradesh
22/==/HDHarda (3)X  11:04+2011:06+202m--2-841.961289mWCRHarda, Madhya Pradesh
23/==/TBNTimarni (2)  11:20+2011:22+292m--2-827.840308mWCRTimarni, Madhya Pradesh
24/==/BPFBanapura (2)  12:04+1112:06+122m--2-799.651314mWCRBanapura, Madhya Pradesh
25/==/ETItarsi Junction (7)X  12:50 12:45+1012:55 12:50+185m12-766.168329mWCRItarsi 461111, Madhya Pradesh
26/==/HBDHoshangabad (2)X  13:13 13:06+2413:15 13:08+242m--2-748.042308mWCRHoshangabad, Madhya Pradesh
27/==/BNIBudni (2)  13:25 13:18+2613:27 13:20+292m--2-741.149311mWCRSehore 466445 Madhya pradesh, Madhya Pradesh
28/==/ODGObaidulla GanjO  14:03 13:58+3514:05 14:00+352m22-710.358 WCRObaidullaganj Raisen Dist., Madhya Pradesh
29/==/MDDPMandi Dip (1)  14:19 14:14+3514:21 14:16+352m12-696.757 WCRMandideep, Madhya Pradesh
30/==/HBJBhopal HabibGanj (5)X  14:38 14:33+3614:40 14:35+392m12-680.615496mWCRHabibGanj, Madhya Pradesh
31/==/BPLBhopal Junction (6)  15:05 15:00+2915:10 15:05+365m22-674.474497mWCRBhopal, Madhya Pradesh
32/==/SCISanchi (2)XO  15:41+3515:43+372m22-630.343428mWCRRaisen, Madhya Pradesh
33/==/BHSVidisha (3)  15:56+3315:58+332m12-620.970 WCRVidisha, Madhya Pradesh
34/==/GLGGulabhGanj (3)  16:16+3516:18+352m12-599.992 WCRVidisha, Madhya Pradesh
35/==/BAQGanj Basoda (4)X  16:30+3716:32+372m12-581.571 WCRVidisha, Madhya Pradesh
36/==/MABAMandi Bamora (3)XO  16:56+3716:58+372m12-553.025413mWCRState Highway 14, Madhya Pradesh
37/==/BINABina Junction (5)X  17:40+1617:45+175m32-535.858414mWCRJn Pt - KATNI/GUNA/ BPL/JHS, Madhya Pradesh
38/==/DUADhaura (3)X  18:21+2718:23+272m--2-501.258407mNCRDhaura Tanda, Madhya Pradesh
39/==/JLNJakhalaun (3)  18:36 18:35+2618:37+261 2m12-489.772394mNCRLalitpur(05176-272220), Uttar Pradesh
40/==/LARLalitpur (3)  18:51+2618:53+262m32-472.986373mNCRLalitpur, Uttar Pradesh
41/==/TBTTalbahat (4)X  19:21+3019:23+302m32-433.059314mNCRKhaniyadhana Station Rd, Madhya Pradesh
42/==/BZYBasai (3)X  19:36+2919:38+292m22-420.260287mNCR07522289600(Gate ManMob. - 9452701575), Madhya Pradesh
43/==/BABBabina (3)X  19:50+3119:52+312m12-408.140285mNCRBabina, Uttar Pradesh
44/==/JHSJhansi Junction (7)X  20:30+2620:38+318m52-382.668259mNCRJhansi, Uttar Pradesh
45/==/DAADatia (2)X  21:00+3521:02+352m--2-357.563264mNCRDatia, Madhya Pradesh
46/==/SORSonagir (2)X  21:13+3521:15+352m--2-346.071211mNCRDatia, Madhya Pradesh
47/==/DBADabra (3)X  21:31+3721:33+382m--2-327.269 NCRDabra(District-Gwalior), Madhya Pradesh
48/==/GWLGwalior Junction (4)X  22:10+4022:18+388m22-284.993214mNCRGwalior, Madhya Pradesh
49/==/MRAMorena (3)X  22:43+4722:45+472m22-246.370176mNCRMorena, Madhya Pradesh
50/==/DHODholpur Junction (3)X  23:08+4923:10+512m12-219.554177mNCRDholpur, Rajasthan
51/==/AGCAgra Cantt. (6)X  00:08+5100:18 00:16+5710 8m23-166.927174mNCRAgra, Uttar Pradesh
52/==/RKMRaja Ki Mandi (4)  00:25+1:0200:27+1:022m13-162.869170mNCRAgra, Uttar Pradesh
53/==/MTJMathura Junction (10)  01:10+1:0701:20 01:15+1:0710 5m33-113.275179mNCRMathura, Uttar Pradesh
54/==/KSVKosi Kalan (3)  01:48+1:1001:50+1:102m13-71.744189mNCRKosi Kalan, Uttar Pradesh
55/==/PWLPalwal (8)  02:48+4602:50+472m--3-29.271200mNRPalwal, Haryana
56/==/BVHBallabgarh (5)  03:08+5603:10+562m33-8.144203mNRFaridabad, Haryana
57/==/FDBFaridabad (4)»  03:21+5803:23+582m230.052206mNRold Faridabad, Haryana
58/==/NZMDelhi Hazrat Nizamuddin (7)X  03:47+1:0003:49+1:002m3320.817209mNRNew Delhi 110013, Delhi NCT
59/==/NDLSNew Delhi (16)  04:10 04:15+5404:30+5720 15m2328.215215mNRNew Delhi 110002, Delhi NCT
60/==/SZMDelhi Sabzi Mandi (2)  04:46+1:0704:48+1:062m--332.349220mNRGulabi Bagh, Delhi NCT
61/==/BHDBadli (2)XO  05:01+1:1005:03+1:102m--342.951217mNRRohini, Delhi NCT
62/==/NURNarela (2)X  05:17 05:18+1:1205:19 05:20+1:132m--355.637222mNRNarela, Delhi NCT
63/==/SNPSonipat (3)X  05:46 05:48+1:0305:48 05:50+1:122m--372.660225mNRSonipat, Haryana
64/==/GNUGanaur  06:00 06:06+1:0906:02 06:08+1:112m--388.557222mNRGanaur, Haryana
65/==/SMKSamalkha (3)  06:21+1:0506:23+1:142m--3100.854229mNRSamalkha, Haryana
66/==/PNPPanipat Junction (5)  06:38 06:42+1:0606:40 06:44+1:082m33117.864235mNRPanipat, Haryana
67/==/GRAGharaunda (2)  07:00+1:1107:02+1:142m--3134.766244mNRGharaunda, Haryana
68/==/KUNKarnal (3)  07:18+1:1007:20+1:102m23152.252253mNRKarnal, Haryana
69/==/TRRTaraori (2)  07:34+1:0507:36 07:35+1:072 1m--3164.326255mNRTaraori, Haryana
70/==/NLKRNilokheri (2)XO  07:44+1:0107:46 07:45+1:032 1m--3168.234254mNRNilokheri, Haryana
71/==/KKDEKurukshetra Junction (3)  08:20 08:15+4408:22 08:17+442m13185.378260mNRKurukshetra, Haryana
72/==/SHDMShahbad Markanda (2)X  08:43 08:34+4408:45 08:36+452m23207.527267mNRShahabad Markanda, Haryana
73/==/UMBAmbala Cantt. Junction (7)X09:20+4509:40+5220m63227.438278mNRAmbala 133001, Haryana
74/==/UBCAmbala City (3)X  09:52+5509:54+562m33235.082273mNRNH-1, Haryana
75/==/RPJRajpura Junction (3)  10:11 10:09+5710:13 10:11+582m13255.455272mNRNH-1., Punjab
76|--|PTAPatiala (4)X  10:35 10:38+1:0710:40+1:115 2m13280.352256mNRPatiala, Punjab
77|--|NBANabha (1)  11:08 11:10+1:0311:10 11:12+1:042m13306.149250mNRNabha, Punjab
78|--|DUIDhuri Junction (4)  11:45+1:0211:50+1:025m--3333.172248mNRDhuri, Punjab
79|--|METMalerkotla (2)X  12:07 12:04+1:0812:09 12:06+1:092m13349.928248mNRMalerkotla., Punjab
80|--|AHHAhmadgarh (1)  12:48+5112:50+512m13369.744256mNRAhmedgarh, Punjab
81|--|LDHLudhiana Junction (7)X  13:25+5313:35+5910m33395.134246mNRLudhiana 141001, Punjab
82/==/PHRPhillaur Junction (3)X  13:58+1:0114:00+1:012m23408.264246mNRPhillaur, Punjab
83/==/GRYGoraya (2)X  14:12+1:0214:14+1:022m23420.954240mNRGoraya, Punjab
84/==/PGWPhagwara Junction (3)X  14:25+5814:27+582m23430.870245mNRPhagwara, Punjab
85/==/JRCJalandhar Cantt. Junction (3)X  14:41+1:0314:43+1:022m13447.124239mNRNear Rama Mandi, Punjab
86/==/JUCJalandhar City Junction (5)  14:55+5515:00+585m13451.956239mNRJalandhar 144001, Punjab
87/==/BEASBeas Junction (2)X  15:39+5815:41+582m13488.080238mNRBeas, Punjab
88/==/JNLJandiala (2)X  15:59+5916:01+592m13511.940238mNRJandiala, Punjab
89/==/ASRAmritsar Junction (5)•  16:30+35-43531.1-233mNRAmritsar 143002, Punjab
Scroll to Top
Scroll to Bottom